createdAt,value
2018-03-04T00:00:30.033Z,31.30
2018-03-04T00:02:56.181Z,31.65
2018-03-04T00:05:22.118Z,31.73
2018-03-04T00:07:51.484Z,30.93
2018-03-04T00:10:17.372Z,33.05
2018-03-04T00:12:44.077Z,33.77
2018-03-04T00:15:10.090Z,26.55
2018-03-04T00:17:38.617Z,31.42
2018-03-04T00:20:04.505Z,30.80
2018-03-04T00:22:40.592Z,32.53
2018-03-04T00:25:06.490Z,38.45
2018-03-04T00:27:32.392Z,36.63
2018-03-04T00:30:01.322Z,39.27
2018-03-04T00:32:27.225Z,34.40
2018-03-04T00:34:53.144Z,28.43
2018-03-04T00:37:19.021Z,31.50
2018-03-04T00:39:44.926Z,34.13
2018-03-04T00:42:10.824Z,35.57
2018-03-04T00:44:36.725Z,34.20
2018-03-04T00:47:02.623Z,34.37
2018-03-04T00:49:31.073Z,34.43
2018-03-04T00:51:56.949Z,32.60
2018-03-04T00:54:26.046Z,39.20
2018-03-04T00:56:51.928Z,31.00
2018-03-04T00:59:19.353Z,31.83
2018-03-04T01:01:45.265Z,39.83
2018-03-04T01:04:15.079Z,37.37
2018-03-04T01:06:40.998Z,33.30
2018-03-04T01:09:07.165Z,34.60
2018-03-04T01:11:33.085Z,33.85
2018-03-04T01:13:58.990Z,38.77
2018-03-04T01:16:25.441Z,33.20
2018-03-04T01:18:51.387Z,31.20
2018-03-04T01:21:20.120Z,32.20
2018-03-04T01:23:46.032Z,38.15
2018-03-04T01:26:15.112Z,38.97
2018-03-04T01:28:41.108Z,33.08
2018-03-04T01:31:10.534Z,31.92
2018-03-04T01:33:36.440Z,30.12
2018-03-04T01:36:06.001Z,33.27
2018-03-04T01:38:32.472Z,33.63
2018-03-04T01:40:58.903Z,30.95
2018-03-04T01:43:24.905Z,31.12
2018-03-04T01:45:50.843Z,34.85
2018-03-04T01:48:16.747Z,37.00
2018-03-04T01:50:42.627Z,36.83
2018-03-04T01:53:12.189Z,39.53
2018-03-04T01:55:38.213Z,30.62
2018-03-04T01:58:07.210Z,28.75
2018-03-04T02:00:33.108Z,34.25
2018-03-04T02:03:01.069Z,35.53
2018-03-04T02:05:26.973Z,34.05
2018-03-04T02:07:55.951Z,43.13
2018-03-04T02:10:21.889Z,42.22
2018-03-04T02:12:51.205Z,33.93
2018-03-04T02:15:17.116Z,33.15
2018-03-04T02:17:46.146Z,32.77
2018-03-04T02:20:12.021Z,34.83
2018-03-04T02:22:37.972Z,36.67
2018-03-04T02:25:03.868Z,38.20
2018-03-04T02:27:29.777Z,33.70
2018-03-04T02:29:56.548Z,30.77
2018-03-04T02:32:22.438Z,38.95
2018-03-04T02:34:52.061Z,44.27
2018-03-04T02:37:17.946Z,38.25
2018-03-04T02:39:47.013Z,40.93
2018-03-04T02:42:12.921Z,38.78
2018-03-04T02:44:40.669Z,35.57
2018-03-04T02:47:06.590Z,32.63
2018-03-04T02:49:36.497Z,33.77
2018-03-04T02:52:02.396Z,31.98
2018-03-04T02:54:30.129Z,29.20
2018-03-04T02:56:56.017Z,31.62
2018-03-04T02:59:21.929Z,34.73
2018-03-04T03:01:47.817Z,30.63
2018-03-04T03:04:13.764Z,25.63
2018-03-04T03:06:41.312Z,26.27
2018-03-04T03:09:07.413Z,29.60
2018-03-04T03:11:36.187Z,31.00
2018-03-04T03:14:02.109Z,23.90
2018-03-04T03:16:31.260Z,28.93
2018-03-04T03:18:57.186Z,22.85
2018-03-04T03:21:26.822Z,24.63
2018-03-04T03:23:52.720Z,32.15
2018-03-04T03:26:21.741Z,29.67
2018-03-04T03:28:47.637Z,23.23
2018-03-04T03:31:16.689Z,22.03
2018-03-04T03:33:42.624Z,25.70
2018-03-04T03:36:08.483Z,21.83
2018-03-04T03:38:34.387Z,25.73
2018-03-04T03:41:00.296Z,23.10
2018-03-04T03:43:26.954Z,22.37
2018-03-04T03:45:52.837Z,27.35
2018-03-04T03:48:21.748Z,30.03
2018-03-04T03:50:47.679Z,25.25
2018-03-04T03:53:16.606Z,23.40
2018-03-04T03:55:42.533Z,26.60
2018-03-04T03:58:12.313Z,26.57
2018-03-04T04:00:38.224Z,28.27
2018-03-04T04:03:05.916Z,29.50
2018-03-04T04:05:31.835Z,27.98
2018-03-04T04:08:00.746Z,24.87
2018-03-04T04:10:26.639Z,20.25
2018-03-04T04:12:52.519Z,25.87
2018-03-04T04:15:18.440Z,25.27
2018-03-04T04:17:44.340Z,22.43
2018-03-04T04:20:13.508Z,31.80
2018-03-04T04:22:39.396Z,26.05
2018-03-04T04:25:08.564Z,29.30
2018-03-04T04:27:34.459Z,32.65
2018-03-04T04:30:01.227Z,25.90
2018-03-04T04:32:27.139Z,29.08
2018-03-04T04:34:55.884Z,28.30
2018-03-04T04:37:21.771Z,24.20
2018-03-04T04:39:51.076Z,23.13
2018-03-04T04:42:16.974Z,27.77
2018-03-04T04:44:46.143Z,27.60
2018-03-04T04:47:12.045Z,27.20
2018-03-04T04:49:37.930Z,26.20
2018-03-04T04:52:03.835Z,28.30
2018-03-04T04:54:29.756Z,26.50
2018-03-04T04:56:57.220Z,20.00
2018-03-04T04:59:23.336Z,15.95
2018-03-04T05:01:51.941Z,23.62
2018-03-04T05:04:17.827Z,18.40
2018-03-04T05:06:47.416Z,18.43
2018-03-04T05:09:13.724Z,19.25
2018-03-04T05:11:41.401Z,16.10
2018-03-04T05:14:07.297Z,18.73
2018-03-04T05:16:36.187Z,18.33
2018-03-04T05:19:02.090Z,15.50
2018-03-04T05:21:31.078Z,23.57
2018-03-04T05:23:56.982Z,23.62
2018-03-04T05:26:22.863Z,19.23
2018-03-04T05:28:49.714Z,12.90
2018-03-04T05:31:15.589Z,18.60
2018-03-04T05:33:42.565Z,18.10
2018-03-04T05:36:08.484Z,16.12
2018-03-04T05:38:37.722Z,10.07
2018-03-04T05:41:03.605Z,12.63
2018-03-04T05:43:33.460Z,14.13
2018-03-04T05:45:59.351Z,17.83
2018-03-04T05:48:27.192Z,11.40
2018-03-04T05:50:53.122Z,15.25
2018-03-04T05:53:22.927Z,20.03
2018-03-04T05:55:48.820Z,14.65
2018-03-04T05:58:16.047Z,15.73
2018-03-04T06:00:41.947Z,11.98
2018-03-04T06:03:08.635Z,13.75
2018-03-04T06:05:34.539Z,20.63
2018-03-04T06:08:00.478Z,11.90
2018-03-04T06:10:28.229Z,13.60
2018-03-04T06:12:54.122Z,13.90
2018-03-04T06:15:23.907Z,12.90
2018-03-04T06:17:49.764Z,13.07
2018-03-04T06:20:18.811Z,13.50
2018-03-04T06:22:44.695Z,13.40
2018-03-04T06:25:13.772Z,10.67
2018-03-04T06:27:39.665Z,11.10
2018-03-04T06:30:08.550Z,14.63
2018-03-04T06:32:34.420Z,9.98
2018-03-04T06:35:01.116Z,9.60
2018-03-04T06:37:26.994Z,9.43
2018-03-04T06:39:52.839Z,11.30
2018-03-04T06:42:18.714Z,20.00
2018-03-04T06:44:44.582Z,15.80
2018-03-04T06:47:13.725Z,12.20
2018-03-04T06:49:39.611Z,18.70
2018-03-04T06:52:09.368Z,12.50
2018-03-04T06:54:35.228Z,12.18
2018-03-04T06:57:02.647Z,13.90
2018-03-04T06:59:28.493Z,11.77
2018-03-04T07:01:57.160Z,11.10
2018-03-04T07:04:23.107Z,10.65
2018-03-04T07:06:51.893Z,15.93
2018-03-04T07:09:17.762Z,13.73
2018-03-04T07:11:47.340Z,12.07
2018-03-04T07:14:13.193Z,10.73
2018-03-04T07:16:39.036Z,8.93
2018-03-04T07:19:04.897Z,7.77
2018-03-04T07:21:30.750Z,8.27
2018-03-04T07:23:58.727Z,10.50
2018-03-04T07:26:24.603Z,10.43
2018-03-04T07:28:53.090Z,9.37
2018-03-04T07:31:19.009Z,8.38
2018-03-04T07:36:15.625Z,7.47
2018-03-04T07:38:42.978Z,5.70
2018-03-04T07:41:08.884Z,5.90
2018-03-04T07:43:38.082Z,13.73
2018-03-04T07:46:03.948Z,10.83
2018-03-04T07:48:31.997Z,12.70
2018-03-04T07:50:57.882Z,9.00
2018-03-04T07:53:23.777Z,8.70
2018-03-04T07:55:49.661Z,5.67
2018-03-04T07:58:15.584Z,31.33
2018-03-04T08:00:45.175Z,10.57
2018-03-04T08:03:11.045Z,5.63
2018-03-04T08:05:40.041Z,7.67
2018-03-04T08:08:05.901Z,7.53
2018-03-04T08:10:34.868Z,6.80
2018-03-04T08:13:00.740Z,6.00
2018-03-04T08:15:29.726Z,7.57
2018-03-04T08:17:55.634Z,6.30
2018-03-04T08:20:22.337Z,8.40
2018-03-04T08:22:48.227Z,8.27
2018-03-04T08:25:26.310Z,6.03
2018-03-04T08:28:04.426Z,5.83
2018-03-04T08:30:30.342Z,7.97
2018-03-04T08:32:56.232Z,8.37
2018-03-04T08:35:22.127Z,7.50
2018-03-04T08:37:47.976Z,5.80
2018-03-04T08:40:13.822Z,7.70
2018-03-04T08:42:39.698Z,7.90
2018-03-04T08:45:05.620Z,3.47
2018-03-04T08:47:31.510Z,6.37
2018-03-04T08:49:57.365Z,7.70
2018-03-04T08:52:23.256Z,4.37
2018-03-04T08:54:49.150Z,9.90
2018-03-04T08:57:15.032Z,8.77
2018-03-04T08:59:40.912Z,8.60
2018-03-04T09:02:06.803Z,5.77
2018-03-04T09:04:32.667Z,6.03
2018-03-04T09:06:58.542Z,9.70
2018-03-04T09:09:24.446Z,36.20
2018-03-04T09:11:50.370Z,46.53
2018-03-04T09:14:16.256Z,10.17
2018-03-04T09:16:42.136Z,5.07
2018-03-04T09:19:08.725Z,4.40
2018-03-04T09:21:34.625Z,9.83
2018-03-04T09:24:03.267Z,7.73
2018-03-04T09:26:29.151Z,6.40
2018-03-04T09:31:26.021Z,4.17
2018-03-04T09:33:53.418Z,2.87
2018-03-04T09:36:19.314Z,5.97
2018-03-04T09:38:48.325Z,4.80
2018-03-04T09:41:14.159Z,5.53
2018-03-04T09:43:40.034Z,4.60
2018-03-04T09:46:05.932Z,7.10
2018-03-04T09:48:31.841Z,5.50
2018-03-04T09:51:01.275Z,5.20
2018-03-04T09:53:27.170Z,9.03
2018-03-04T09:55:54.962Z,7.97
2018-03-04T09:58:20.862Z,7.30
2018-03-04T10:00:50.659Z,6.03
2018-03-04T10:03:16.559Z,3.40
2018-03-04T10:05:43.734Z,4.83
2018-03-04T10:08:09.681Z,4.07
2018-03-04T10:10:38.296Z,5.07
2018-03-04T10:13:04.278Z,5.27
2018-03-04T10:15:33.096Z,3.60
2018-03-04T10:17:58.979Z,3.60
2018-03-04T10:20:24.851Z,7.80
2018-03-04T10:22:50.755Z,7.83
2018-03-04T10:25:16.661Z,6.43
2018-03-04T10:27:45.962Z,5.47
2018-03-04T10:30:11.856Z,5.03
2018-03-04T10:32:39.568Z,5.73
2018-03-04T10:35:05.462Z,5.68
2018-03-04T10:37:34.173Z,5.57
2018-03-04T10:40:00.050Z,4.82
2018-03-04T10:42:29.270Z,12.07
2018-03-04T10:44:55.194Z,6.10
2018-03-04T10:47:24.264Z,3.13
2018-03-04T10:49:50.187Z,6.00
2018-03-04T10:52:19.334Z,15.30
2018-03-04T10:54:45.226Z,5.18
2018-03-04T10:57:11.092Z,4.37
2018-03-04T10:59:37.013Z,9.20
2018-03-04T11:02:03.912Z,4.97
2018-03-04T11:04:31.080Z,6.10
2018-03-04T11:06:56.990Z,3.70
2018-03-04T11:09:25.945Z,5.60
2018-03-04T11:11:51.841Z,4.50
2018-03-04T11:14:19.661Z,2.40
2018-03-04T11:16:45.563Z,3.93
2018-03-04T11:19:15.896Z,8.87
2018-03-04T11:21:41.807Z,4.30
2018-03-04T11:24:09.610Z,3.70
2018-03-04T11:26:35.514Z,5.53
2018-03-04T11:29:05.280Z,3.83
2018-03-04T11:31:31.168Z,6.73
2018-03-04T11:33:57.081Z,7.13
2018-03-04T11:36:23.013Z,7.87
2018-03-04T11:38:48.919Z,5.70
2018-03-04T11:41:16.212Z,6.57
2018-03-04T11:43:42.132Z,5.77
2018-03-04T11:46:11.131Z,2.63
2018-03-04T11:48:37.027Z,4.53
2018-03-04T11:51:05.931Z,5.07
2018-03-04T11:53:31.850Z,8.23
2018-03-04T11:55:59.648Z,4.10
2018-03-04T11:58:25.669Z,5.53
2018-03-04T12:00:54.695Z,7.53
2018-03-04T12:03:20.558Z,2.17
2018-03-04T12:05:49.723Z,5.87
2018-03-04T12:08:15.610Z,3.73
2018-03-04T12:10:41.484Z,10.77
2018-03-04T12:13:08.180Z,8.17
2018-03-04T12:15:34.104Z,6.63
2018-03-04T12:18:00.724Z,8.40
2018-03-04T12:20:26.643Z,6.37
2018-03-04T12:22:56.365Z,3.80
2018-03-04T12:25:22.324Z,4.70
2018-03-04T12:27:50.203Z,4.37
2018-03-04T12:30:16.066Z,7.93
2018-03-04T12:32:44.562Z,4.83
2018-03-04T12:35:10.511Z,3.80
2018-03-04T12:37:39.542Z,3.57
2018-03-04T12:40:05.430Z,5.95
2018-03-04T12:42:34.229Z,4.17
2018-03-04T12:45:00.164Z,6.80
2018-03-04T12:47:26.232Z,6.47
2018-03-04T12:49:52.096Z,8.93
2018-03-04T12:52:17.968Z,7.10
2018-03-04T12:54:47.006Z,2.80
2018-03-04T12:57:12.926Z,6.33
2018-03-04T12:59:40.959Z,1.97
2018-03-04T13:02:06.835Z,3.60
2018-03-04T13:04:35.765Z,3.03
2018-03-04T13:07:01.741Z,3.87
2018-03-04T13:09:30.897Z,2.50
2018-03-04T13:11:56.795Z,5.83
2018-03-04T13:14:25.724Z,3.20
2018-03-04T13:16:51.653Z,3.70
2018-03-04T13:19:20.591Z,3.40
2018-03-04T13:21:46.445Z,9.10
2018-03-04T13:24:12.362Z,3.70
2018-03-04T13:26:38.236Z,3.07
2018-03-04T13:29:04.146Z,3.33
2018-03-04T13:31:31.642Z,6.53
2018-03-04T13:33:57.587Z,4.90
2018-03-04T13:36:26.367Z,3.20
2018-03-04T13:38:52.271Z,5.33
2018-03-04T13:41:21.591Z,3.77
2018-03-04T13:43:47.494Z,6.70
2018-03-04T13:46:16.384Z,4.23
2018-03-04T13:48:42.307Z,3.27
2018-03-04T13:51:11.323Z,7.53
2018-03-04T13:53:37.224Z,1.77
2018-03-04T13:56:04.876Z,5.47
2018-03-04T13:58:30.776Z,3.13
2018-03-04T14:00:56.668Z,6.33
2018-03-04T14:03:22.552Z,5.20
2018-03-04T14:05:48.423Z,6.40
2018-03-04T14:08:18.100Z,6.30
2018-03-04T14:10:44.003Z,7.60
2018-03-04T14:13:11.831Z,3.90
2018-03-04T14:15:37.743Z,16.53
2018-03-04T14:18:06.894Z,5.13
2018-03-04T14:20:32.783Z,3.30
2018-03-04T14:23:01.813Z,10.73
2018-03-04T14:25:27.739Z,5.07
2018-03-04T14:27:55.671Z,7.53
2018-03-04T14:30:21.581Z,5.75
2018-03-04T14:32:50.410Z,5.73
2018-03-04T14:35:16.291Z,6.07
2018-03-04T14:37:42.199Z,4.93
2018-03-04T14:40:08.083Z,4.83
2018-03-04T14:42:33.970Z,6.60
2018-03-04T14:45:03.582Z,4.73
2018-03-04T14:47:29.456Z,6.47
2018-03-04T14:49:58.586Z,2.53
2018-03-04T14:52:24.506Z,3.93
2018-03-04T14:54:52.203Z,4.90
2018-03-04T14:57:18.140Z,7.45
2018-03-04T14:59:47.121Z,1.97
2018-03-04T15:02:13.002Z,4.87
2018-03-04T15:04:41.987Z,7.93
2018-03-04T15:07:07.884Z,4.87
2018-03-04T15:09:35.678Z,3.73
2018-03-04T15:12:01.599Z,2.85
2018-03-04T15:14:34.360Z,4.40
2018-03-04T15:17:00.376Z,7.78
2018-03-04T15:19:26.273Z,4.55
2018-03-04T15:21:52.186Z,6.53
2018-03-04T15:24:18.089Z,4.13
2018-03-04T15:26:43.963Z,4.33
2018-03-04T15:29:09.879Z,2.93
2018-03-04T15:31:37.456Z,4.30
2018-03-04T15:34:03.350Z,5.10
2018-03-04T15:36:32.300Z,2.37
2018-03-04T15:38:58.215Z,8.95
2018-03-04T15:41:27.195Z,4.73
2018-03-04T15:43:53.103Z,4.90
2018-03-04T15:46:21.001Z,9.80
2018-03-04T15:48:46.876Z,6.90
2018-03-04T15:51:12.763Z,7.90
2018-03-04T15:53:38.657Z,14.90
2018-03-04T15:56:04.553Z,8.10
2018-03-04T15:58:34.265Z,5.90
2018-03-04T16:01:00.166Z,7.32
2018-03-04T16:03:28.093Z,6.20
2018-03-04T16:05:54.007Z,7.25
2018-03-04T16:08:22.129Z,4.50
2018-03-04T16:10:48.037Z,5.93
2018-03-04T16:13:16.829Z,11.27
2018-03-04T16:15:42.718Z,4.50
2018-03-04T16:18:13.033Z,12.53
2018-03-04T16:20:38.919Z,7.10
2018-03-04T16:23:08.039Z,3.70
2018-03-04T16:25:33.959Z,4.75
2018-03-04T16:27:59.824Z,7.53
2018-03-04T16:30:25.716Z,9.00
2018-03-04T16:32:51.620Z,4.50
2018-03-04T16:35:18.945Z,5.57
2018-03-04T16:37:44.814Z,3.15
2018-03-04T16:40:12.661Z,5.03
2018-03-04T16:42:38.594Z,5.40
2018-03-04T16:45:08.071Z,7.50
2018-03-04T16:47:33.972Z,2.40
2018-03-04T16:50:03.709Z,14.00
2018-03-04T16:52:29.609Z,3.45
2018-03-04T16:54:56.842Z,5.93
2018-03-04T16:57:22.744Z,3.15
2018-03-04T16:59:51.523Z,9.50
2018-03-04T17:02:17.427Z,7.70
2018-03-04T17:04:43.315Z,5.50
2018-03-04T17:07:09.215Z,4.60
2018-03-04T17:09:35.108Z,6.80
2018-03-04T17:12:04.664Z,7.30
2018-03-04T17:14:30.556Z,9.02
2018-03-04T17:16:59.650Z,7.37
2018-03-04T17:19:25.544Z,6.25
2018-03-04T17:21:53.392Z,8.83
2018-03-04T17:27:09.982Z,4.93
2018-03-04T17:29:35.846Z,4.70
2018-03-04T17:32:01.792Z,5.30
2018-03-04T17:34:27.657Z,4.90
2018-03-04T17:39:43.614Z,9.25
2018-03-04T17:42:09.554Z,10.00
2018-03-04T17:44:35.449Z,6.37
2018-03-04T17:47:01.373Z,5.93
2018-03-04T17:49:35.458Z,6.70
2018-03-04T17:52:01.340Z,6.75
2018-03-04T17:54:27.229Z,4.47
2018-03-04T17:56:53.154Z,6.17
2018-03-04T18:02:13.117Z,8.82
2018-03-04T18:04:39.037Z,2.85
2018-03-04T18:07:08.022Z,6.50
2018-03-04T18:09:33.887Z,10.35
2018-03-04T18:12:01.803Z,4.50
2018-03-04T18:14:27.697Z,12.55
2018-03-04T18:16:55.674Z,7.23
2018-03-04T18:19:21.560Z,6.47
2018-03-04T18:21:51.019Z,7.07
2018-03-04T18:24:16.937Z,5.55
2018-03-04T18:26:46.649Z,10.20
2018-03-04T18:29:12.548Z,3.28
2018-03-04T18:31:41.746Z,7.93
2018-03-04T18:34:07.649Z,6.28
2018-03-04T18:36:34.342Z,9.27
2018-03-04T18:39:00.264Z,7.15
2018-03-04T18:41:30.483Z,5.63
2018-03-04T18:43:56.450Z,7.82
2018-03-04T18:46:25.589Z,6.40
2018-03-04T18:48:51.512Z,5.70
2018-03-04T18:51:19.350Z,9.10
2018-03-04T18:53:45.261Z,7.90
2018-03-04T18:56:14.262Z,6.37
2018-03-04T18:58:40.188Z,9.55
2018-03-04T19:01:07.916Z,9.90
2018-03-04T19:03:33.813Z,11.32
2018-03-04T19:06:02.716Z,7.07
2018-03-04T19:08:28.605Z,8.90
2018-03-04T19:10:54.487Z,8.30
2018-03-04T19:13:20.383Z,21.60
2018-03-04T19:15:46.309Z,23.90
2018-03-04T19:18:15.296Z,36.87
2018-03-04T19:20:41.224Z,38.17
2018-03-04T19:23:11.034Z,29.97
2018-03-04T19:25:36.950Z,22.60
2018-03-04T19:28:03.983Z,61.13
2018-03-04T19:30:29.908Z,100.95
2018-03-04T19:32:59.143Z,32.30
2018-03-04T19:35:25.029Z,22.77
2018-03-04T19:37:53.983Z,23.70
2018-03-04T19:40:19.874Z,35.30
2018-03-04T19:42:48.028Z,23.60
2018-03-04T19:45:13.931Z,23.70
2018-03-04T19:47:39.851Z,11.80
2018-03-04T19:50:05.779Z,20.80
2018-03-04T19:52:31.663Z,5.93
2018-03-04T19:55:01.508Z,11.03
2018-03-04T19:57:27.392Z,10.77
2018-03-04T19:59:56.445Z,12.50
2018-03-04T20:02:22.311Z,16.17
2018-03-04T20:04:49.405Z,15.10
2018-03-04T20:07:15.292Z,8.20
2018-03-04T20:09:44.163Z,14.30
2018-03-04T20:12:10.081Z,16.73
2018-03-04T20:14:39.989Z,10.97
2018-03-04T20:17:05.892Z,9.90
2018-03-04T20:19:34.910Z,16.03
2018-03-04T20:22:00.784Z,13.45
2018-03-04T20:24:26.692Z,13.93
2018-03-04T20:26:52.604Z,31.77
2018-03-04T20:29:18.483Z,141.20
2018-03-04T20:31:45.245Z,12.27
2018-03-04T20:34:11.132Z,10.82
2018-03-04T20:36:39.696Z,17.20
2018-03-04T20:39:05.622Z,14.13
2018-03-04T20:41:34.396Z,12.60
2018-03-04T20:44:00.307Z,14.45
2018-03-04T20:46:29.102Z,11.57
2018-03-04T20:48:54.970Z,12.55
2018-03-04T20:51:23.615Z,12.10
2018-03-04T20:53:49.533Z,15.57
2018-03-04T20:56:18.743Z,15.90
2018-03-04T20:58:44.663Z,12.50
2018-03-04T21:01:10.575Z,9.47
2018-03-04T21:03:36.484Z,13.50
2018-03-04T21:06:02.406Z,15.93
2018-03-04T21:08:32.246Z,16.13
2018-03-04T21:10:58.163Z,8.10
2018-03-04T21:13:24.885Z,13.50
2018-03-04T21:15:50.807Z,16.48
2018-03-04T21:18:19.573Z,13.80
2018-03-04T21:20:45.490Z,12.02
2018-03-04T21:23:14.393Z,15.00
2018-03-04T21:25:40.300Z,12.05
2018-03-04T21:28:09.322Z,12.07
2018-03-04T21:30:35.224Z,14.70
2018-03-04T21:33:04.246Z,14.37
2018-03-04T21:35:30.165Z,12.20
2018-03-04T21:37:56.082Z,16.10
2018-03-04T21:40:21.992Z,11.57
2018-03-04T21:42:47.919Z,10.50
2018-03-04T21:45:17.636Z,12.80
2018-03-04T21:47:43.540Z,13.88
2018-03-04T21:50:11.387Z,13.87
2018-03-04T21:52:37.303Z,12.25
2018-03-04T21:55:05.127Z,8.10
2018-03-04T21:57:31.030Z,11.82
2018-03-04T21:59:59.719Z,14.80
2018-03-04T22:02:25.576Z,11.90
2018-03-04T22:04:54.223Z,7.83
2018-03-04T22:07:20.139Z,11.73
2018-03-04T22:09:49.205Z,10.77
2018-03-04T22:12:15.133Z,20.27
2018-03-04T22:14:41.085Z,22.60
2018-03-04T22:17:06.997Z,23.40
2018-03-04T22:19:32.863Z,17.87
2018-03-04T22:22:04.784Z,17.03
2018-03-04T22:24:30.703Z,37.72
2018-03-04T22:26:56.603Z,23.03
2018-03-04T22:29:22.814Z,16.33
2018-03-04T22:31:50.482Z,18.33
2018-03-04T22:34:16.368Z,17.92
2018-03-04T22:36:45.816Z,20.73
2018-03-04T22:39:11.722Z,9.10
2018-03-04T22:41:39.839Z,11.33
2018-03-04T22:44:05.749Z,14.57
2018-03-04T22:46:34.611Z,14.90
2018-03-04T22:49:00.505Z,9.57
2018-03-04T22:51:26.407Z,5.23
2018-03-04T22:53:52.349Z,4.30
2018-03-04T22:56:18.271Z,7.50
2018-03-04T22:58:48.133Z,2.17
2018-03-04T23:01:14.031Z,2.12
2018-03-04T23:03:41.050Z,2.53
2018-03-04T23:06:07.002Z,1.95
2018-03-04T23:08:36.042Z,1.10
2018-03-04T23:11:01.924Z,1.55
2018-03-04T23:13:31.082Z,1.10
2018-03-04T23:15:56.986Z,1.25
2018-03-04T23:18:27.185Z,1.73
2018-03-04T23:20:53.055Z,3.37
2018-03-04T23:23:19.964Z,1.53
2018-03-04T23:25:45.869Z,1.48
2018-03-04T23:28:11.761Z,1.70
2018-03-04T23:30:37.659Z,2.10
2018-03-04T23:33:03.610Z,4.77
2018-03-04T23:35:33.093Z,12.50
2018-03-04T23:37:59.013Z,3.15
2018-03-04T23:40:28.009Z,4.80
2018-03-04T23:42:53.892Z,2.12
2018-03-04T23:45:21.759Z,2.67
2018-03-04T23:47:47.686Z,1.33
2018-03-04T23:50:17.607Z,1.33
2018-03-04T23:52:43.483Z,1.45
2018-03-04T23:55:10.402Z,1.97
2018-03-04T23:57:36.338Z,2.87
